Time;durP1;ratioP1;P1;durP2;ratioP2;P2;SDS_P1;SDS_P2;PMS_P1;PMS_P2;Temp;Humidity;BMP_temperature;BMP_pressure;BME280_temperature;BME280_humidity;BME280_pressure;Samples;Min_cycle;Max_cycle;Signal;HPM_P1;HPM_P2
2022/01/01 00:01:34;;;;;;;23.02;16.90;;;;;;;-140.79;100.00;63287.88;5024526;28;20029;-52
2022/01/01 00:03:59;;;;;;;20.80;17.40;;;;;;;-140.79;100.00;63287.88;5024866;28;20530;-50
2022/01/01 00:06:24;;;;;;;23.67;17.92;;;;;;;-140.79;100.00;63287.88;5024816;28;20033;-52
2022/01/01 00:08:50;;;;;;;22.15;17.75;;;;;;;-140.79;100.00;63287.88;5024627;28;20038;-52
2022/01/01 00:11:15;;;;;;;24.65;18.77;;;;;;;-140.79;100.00;63287.88;5024457;28;20025;-52
2022/01/01 00:13:41;;;;;;;24.15;19.40;;;;;;;-140.79;100.00;63287.88;5024640;28;20034;-52
2022/01/01 00:16:09;;;;;;;23.92;18.63;;;;;;;-140.79;100.00;63287.88;5024984;28;20480;-53
2022/01/01 00:18:36;;;;;;;24.65;19.33;;;;;;;-140.79;100.00;63287.88;5025046;28;20029;-52
2022/01/01 00:21:01;;;;;;;24.77;19.00;;;;;;;-140.79;100.00;63287.88;5025034;28;20042;-52
2022/01/01 00:23:26;;;;;;;24.58;20.13;;;;;;;-140.79;100.00;63287.88;5024250;28;20546;-51
2022/01/01 00:25:52;;;;;;;27.58;20.15;;;;;;;-140.79;100.00;63287.88;5024825;28;20083;-52
2022/01/01 00:28:17;;;;;;;26.00;19.73;;;;;;;-140.79;100.00;63287.88;5024944;28;20087;-52
2022/01/01 00:30:43;;;;;;;27.73;20.92;;;;;;;-140.79;100.00;63287.88;5024971;28;20034;-52
2022/01/01 00:33:08;;;;;;;25.50;19.90;;;;;;;-140.79;100.00;63287.88;5024925;28;20484;-52
2022/01/01 00:35:34;;;;;;;31.52;22.60;;;;;;;-140.79;100.00;63287.88;5024478;28;20472;-52
2022/01/01 00:37:59;;;;;;;27.83;20.90;;;;;;;-140.79;100.00;63287.88;5024949;28;20029;-52
2022/01/01 00:40:24;;;;;;;26.88;21.27;;;;;;;-140.79;100.00;63287.88;5024710;28;20518;-53
2022/01/01 00:42:50;;;;;;;30.20;21.50;;;;;;;-140.79;100.00;63287.88;5024698;28;20091;-52
2022/01/01 00:45:15;;;;;;;28.23;21.95;;;;;;;-140.79;100.00;63287.88;5024744;28;20124;-52
2022/01/01 00:47:41;;;;;;;27.48;21.25;;;;;;;-140.79;100.00;63287.88;5024056;28;20041;-52
2022/01/01 00:50:06;;;;;;;32.08;23.13;;;;;;;-140.79;100.00;63287.88;5024801;28;20059;-52
2022/01/01 00:52:32;;;;;;;30.40;22.60;;;;;;;-140.79;100.00;63287.88;5024403;28;20104;-52
2022/01/01 00:54:57;;;;;;;31.83;23.25;;;;;;;-140.79;100.00;63287.88;5024620;28;20025;-51
2022/01/01 00:57:23;;;;;;;29.60;22.77;;;;;;;-140.79;100.00;63287.88;5024715;28;20510;-53
2022/01/01 00:59:48;;;;;;;31.73;23.92;;;;;;;-140.79;100.00;63287.88;5024353;28;20459;-52
2022/01/01 01:02:13;;;;;;;31.52;23.67;;;;;;;-140.79;100.00;63287.88;5024626;28;20025;-52
2022/01/01 01:04:39;;;;;;;32.30;24.30;;;;;;;-140.79;100.00;63287.88;5024561;28;20472;-52
2022/01/01 01:07:04;;;;;;;31.60;24.50;;;;;;;-140.79;100.00;63287.88;5040210;28;20044;-53
2022/01/01 01:09:30;;;;;;;31.85;25.02;;;;;;;-140.79;100.00;63287.88;5024351;28;20034;-52
2022/01/01 01:11:56;;;;;;;31.75;24.52;;;;;;;-140.79;100.00;63287.88;5024611;28;20037;-55
2022/01/01 01:14:23;;;;;;;30.60;23.73;;;;;;;-140.79;100.00;63287.88;5024444;28;20025;-52
2022/01/01 01:16:49;;;;;;;33.45;25.25;;;;;;;-140.79;100.00;63287.88;5024648;28;20048;-52
2022/01/01 01:19:15;;;;;;;35.53;25.83;;;;;;;-140.79;100.00;63287.88;5024709;28;20522;-52
2022/01/01 01:21:40;;;;;;;31.75;25.25;;;;;;;-140.79;100.00;63287.88;5024736;28;20018;-55
2022/01/01 01:24:06;;;;;;;32.15;23.98;;;;;;;-140.79;100.00;63287.88;5025189;28;20041;-53
2022/01/01 01:26:31;;;;;;;33.72;26.17;;;;;;;-140.79;100.00;63287.88;5027407;28;20468;-52
2022/01/01 01:28:58;;;;;;;35.92;26.65;;;;;;;-140.79;100.00;63287.88;5025246;28;20108;-53
2022/01/01 01:31:28;;;;;;;34.42;25.45;;;;;;;-140.79;100.00;63287.88;5024127;28;20061;-52
2022/01/01 01:33:54;;;;;;;34.80;25.90;;;;;;;-140.79;100.00;63287.88;5023653;28;20037;-53
2022/01/01 01:36:19;;;;;;;33.30;25.67;;;;;;;-140.79;100.00;63287.88;5024367;28;20542;-52
2022/01/01 01:38:44;;;;;;;33.92;27.23;;;;;;;-140.79;100.00;63287.88;5023950;28;20049;-54
2022/01/01 01:41:10;;;;;;;34.90;25.13;;;;;;;-140.79;100.00;63287.88;5026944;28;20107;-52
2022/01/01 01:43:35;;;;;;;36.45;26.85;;;;;;;-140.79;100.00;63287.88;5027376;28;20045;-52
2022/01/01 01:46:05;;;;;;;38.63;27.73;;;;;;;-140.79;100.00;63287.88;5027817;28;20041;-52
2022/01/01 01:48:35;;;;;;;34.05;27.20;;;;;;;-140.79;100.00;63287.88;5027602;28;20033;-52
2022/01/01 01:51:00;;;;;;;36.67;29.25;;;;;;;-140.79;100.00;63287.88;5027505;28;20137;-53
2022/01/01 01:53:26;;;;;;;36.47;27.48;;;;;;;-140.79;100.00;63287.88;5025978;28;20041;-53
2022/01/01 01:55:51;;;;;;;36.97;30.02;;;;;;;-140.79;100.00;63287.88;5026017;28;20037;-52
2022/01/01 01:58:17;;;;;;;35.70;29.05;;;;;;;-140.79;100.00;63287.88;5027460;28;20041;-52
2022/01/01 02:03:11;;;;;;;36.58;28.33;;;;;;;-140.79;100.00;63287.88;5027606;28;20045;-53
2022/01/01 02:05:39;;;;;;;36.70;29.08;;;;;;;-140.79;100.00;63287.88;5026978;28;20033;-52
2022/01/01 02:08:05;;;;;;;36.92;29.17;;;;;;;-140.79;100.00;63287.88;5027424;28;20119;-52
2022/01/01 02:10:31;;;;;;;35.85;29.00;;;;;;;-140.79;100.00;63287.88;5027338;28;20031;-52
2022/01/01 02:12:57;;;;;;;36.85;27.58;;;;;;;-140.79;100.00;63287.88;5027113;28;20033;-52
2022/01/01 02:15:44;;;;;;;38.65;27.10;;;;;;;-140.79;100.00;63287.88;5027240;28;20384;-53
2022/01/01 02:18:10;;;;;;;36.83;27.17;;;;;;;-140.79;100.00;63287.88;5027206;28;20036;-52
2022/01/01 02:20:35;;;;;;;36.55;27.73;;;;;;;-140.79;100.00;63287.88;5027196;28;20026;-52
2022/01/01 02:23:01;;;;;;;35.85;27.15;;;;;;;-140.79;100.00;63287.88;5026876;28;20623;-52
2022/01/01 02:25:27;;;;;;;37.17;27.95;;;;;;;-140.79;100.00;63287.88;5027141;28;20420;-53
2022/01/01 02:27:53;;;;;;;38.00;27.80;;;;;;;-140.79;100.00;63287.88;5026594;28;20037;-53
2022/01/01 02:30:18;;;;;;;38.75;28.55;;;;;;;-140.79;100.00;63287.88;5026996;28;20021;-52
2022/01/01 02:32:44;;;;;;;38.80;28.35;;;;;;;-140.79;100.00;63287.88;5026743;28;20055;-52
2022/01/01 02:35:11;;;;;;;37.47;27.27;;;;;;;-140.79;100.00;63287.88;5027297;28;20041;-54
2022/01/01 02:37:37;;;;;;;39.65;27.48;;;;;;;-140.79;100.00;63287.88;5029731;28;20497;-53
2022/01/01 02:40:03;;;;;;;38.20;27.23;;;;;;;-140.79;100.00;63287.88;5043470;28;20115;-51
2022/01/01 02:42:29;;;;;;;36.95;26.13;;;;;;;-140.79;100.00;63287.88;5027924;28;20458;-52
2022/01/01 02:44:54;;;;;;;37.75;27.77;;;;;;;-140.79;100.00;63287.88;5027289;28;20022;-52
2022/01/01 02:47:20;;;;;;;38.22;27.67;;;;;;;-140.79;100.00;63287.88;5026500;28;20036;-52
2022/01/01 02:49:46;;;;;;;36.17;27.67;;;;;;;-140.79;100.00;63287.88;5026128;28;20068;-51
2022/01/01 02:52:11;;;;;;;38.22;27.38;;;;;;;-140.79;100.00;63287.88;5025106;28;20480;-51
2022/01/01 02:54:36;;;;;;;38.10;26.23;;;;;;;-140.79;100.00;63287.88;5026894;28;20044;-52
2022/01/01 02:57:02;;;;;;;36.90;28.48;;;;;;;-140.79;100.00;63287.88;5024920;28;20555;-52
2022/01/01 02:59:28;;;;;;;38.42;29.58;;;;;;;-140.79;100.00;63287.88;5026441;28;20118;-52
2022/01/01 03:01:53;;;;;;;38.45;29.60;;;;;;;-140.79;100.00;63287.88;5026085;28;20033;-51
2022/01/01 03:04:18;;;;;;;37.67;29.65;;;;;;;-140.79;100.00;63287.88;5026504;28;20030;-52
2022/01/01 03:06:52;;;;;;;38.40;29.00;;;;;;;-140.79;100.00;63287.88;5026547;28;20033;-53
2022/01/01 03:09:17;;;;;;;39.35;30.05;;;;;;;-140.79;100.00;63287.88;5026050;28;20092;-54
2022/01/01 03:11:43;;;;;;;39.20;29.42;;;;;;;-140.79;100.00;63287.88;5025770;28;20505;-54
2022/01/01 03:14:10;;;;;;;36.28;28.33;;;;;;;-140.79;100.00;63287.88;5026122;28;20013;-49
2022/01/01 03:16:35;;;;;;;38.70;29.20;;;;;;;-140.79;100.00;63287.88;5027573;28;20088;-52
2022/01/01 03:19:01;;;;;;;39.83;29.20;;;;;;;-140.79;100.00;63287.88;5026505;28;20539;-53
2022/01/01 03:21:26;;;;;;;37.80;29.33;;;;;;;-140.79;100.00;63287.88;5027730;28;20040;-54
2022/01/01 03:23:52;;;;;;;39.80;29.13;;;;;;;-140.79;100.00;63287.88;5026764;28;20050;-52
2022/01/01 03:26:17;;;;;;;38.15;28.38;;;;;;;-140.79;100.00;63287.88;5026705;28;20021;-51
2022/01/01 03:28:43;;;;;;;36.45;27.38;;;;;;;-140.79;100.00;63287.88;5025762;28;20041;-51
2022/01/01 03:31:08;;;;;;;39.03;28.73;;;;;;;-140.79;100.00;63287.88;5025933;28;20060;-51
2022/01/01 03:33:33;;;;;;;39.75;29.92;;;;;;;-140.79;100.00;63287.88;5025659;28;20407;-51
2022/01/01 03:35:59;;;;;;;37.03;28.13;;;;;;;-140.79;100.00;63287.88;5025658;28;20412;-53
2022/01/01 03:38:24;;;;;;;37.08;27.98;;;;;;;-140.79;100.00;63287.88;5025495;28;20424;-53
2022/01/01 03:40:50;;;;;;;38.03;28.27;;;;;;;-140.79;100.00;63287.88;5025608;28;20038;-53
2022/01/01 03:43:15;;;;;;;36.15;27.73;;;;;;;-140.79;100.00;63287.88;5025442;28;20029;-53
2022/01/01 03:45:41;;;;;;;36.38;27.60;;;;;;;-140.79;100.00;63287.88;5025837;28;20030;-53
2022/01/01 03:48:06;;;;;;;36.83;27.55;;;;;;;-140.79;100.00;63287.88;5020057;28;20750;-53
2022/01/01 03:50:32;;;;;;;35.22;25.85;;;;;;;-140.79;100.00;63287.88;5025402;28;20021;-54
2022/01/01 03:52:58;;;;;;;35.80;27.20;;;;;;;-140.79;100.00;63287.88;5025423;28;20108;-53
2022/01/01 03:55:23;;;;;;;36.50;26.92;;;;;;;-140.79;100.00;63287.88;5025815;28;20183;-52
2022/01/01 03:57:49;;;;;;;37.25;27.75;;;;;;;-140.79;100.00;63287.88;5025285;28;20527;-52
2022/01/01 04:00:15;;;;;;;35.20;27.75;;;;;;;-140.79;100.00;63287.88;5023921;28;20040;-53
2022/01/01 04:02:40;;;;;;;36.30;27.00;;;;;;;-140.79;100.00;63287.88;5024758;28;20112;-53
2022/01/01 04:05:06;;;;;;;35.58;28.08;;;;;;;-140.79;100.00;63287.88;5025019;28;20758;-53
2022/01/01 04:07:32;;;;;;;35.70;27.63;;;;;;;-140.79;100.00;63287.88;5025239;28;20033;-53
2022/01/01 04:09:58;;;;;;;34.03;26.20;;;;;;;-140.79;100.00;63287.88;5024797;28;20515;-54
2022/01/01 04:12:24;;;;;;;33.28;25.92;;;;;;;-140.79;100.00;63287.88;5025062;28;20034;-52
2022/01/01 04:14:49;;;;;;;35.47;27.67;;;;;;;-140.79;100.00;63287.88;5024862;28;20030;-52
2022/01/01 04:17:15;;;;;;;37.95;27.67;;;;;;;-140.79;100.00;63287.88;5025083;28;20033;-53
2022/01/01 04:19:40;;;;;;;34.55;26.77;;;;;;;-140.79;100.00;63287.88;5024558;28;20029;-53
2022/01/01 04:22:09;;;;;;;34.42;26.13;;;;;;;-140.79;100.00;63287.88;5024741;28;20037;-52
2022/01/01 04:24:35;;;;;;;36.40;27.40;;;;;;;-140.79;100.00;63287.88;5024714;28;20504;-52
2022/01/01 04:27:01;;;;;;;34.58;25.77;;;;;;;-140.79;100.00;63287.88;5024929;28;20060;-52
2022/01/01 04:29:27;;;;;;;36.10;26.95;;;;;;;-140.79;100.00;63287.88;5024700;28;20048;-52
2022/01/01 04:31:53;;;;;;;34.05;27.15;;;;;;;-140.79;100.00;63287.88;5024391;28;20432;-51
2022/01/01 04:34:19;;;;;;;34.45;25.95;;;;;;;-140.79;100.00;63287.88;5024607;28;20021;-51
2022/01/01 04:36:53;;;;;;;32.88;27.08;;;;;;;-140.79;100.00;63287.88;5024701;28;20040;-51
2022/01/01 04:39:18;;;;;;;36.17;26.58;;;;;;;-140.79;100.00;63287.88;5024527;28;20033;-54
2022/01/01 04:41:44;;;;;;;35.28;26.63;;;;;;;-140.79;100.00;63287.88;5024470;28;20415;-53
2022/01/01 04:44:09;;;;;;;36.30;25.70;;;;;;;-140.79;100.00;63287.88;5024587;28;20033;-56
2022/01/01 04:46:34;;;;;;;34.88;25.38;;;;;;;-140.79;100.00;63287.88;5024543;28;20076;-51
2022/01/01 04:49:01;;;;;;;33.78;26.30;;;;;;;-140.79;100.00;63287.88;5024682;28;20041;-51
2022/01/01 04:51:26;;;;;;;35.38;25.35;;;;;;;-140.79;100.00;63287.88;5024415;28;20033;-51
2022/01/01 04:53:58;;;;;;;32.88;24.70;;;;;;;-140.79;100.00;63287.88;5024088;28;20072;-51
2022/01/01 04:56:24;;;;;;;33.05;25.33;;;;;;;-140.79;100.00;63287.88;5024564;28;20159;-51
2022/01/01 04:58:49;;;;;;;32.10;24.67;;;;;;;-140.79;100.00;63287.88;5024366;28;20025;-52
2022/01/01 05:01:14;;;;;;;34.00;25.48;;;;;;;-140.79;100.00;63287.88;5024792;28;20033;-51
2022/01/01 05:03:40;;;;;;;32.47;24.50;;;;;;;-140.79;100.00;63287.88;5024136;28;20037;-52
2022/01/01 05:06:05;;;;;;;34.63;25.48;;;;;;;-140.79;100.00;63287.88;5024792;28;20026;-52
2022/01/01 05:08:31;;;;;;;32.45;24.15;;;;;;;-140.79;100.00;63287.88;5024510;28;20021;-52
2022/01/01 05:10:56;;;;;;;32.97;25.65;;;;;;;-140.79;100.00;63287.88;5039015;28;20080;-51
2022/01/01 05:13:21;;;;;;;33.85;25.35;;;;;;;-140.79;100.00;63287.88;5024573;28;20409;-52
2022/01/01 05:15:49;;;;;;;31.85;24.75;;;;;;;-140.79;100.00;63287.88;5026445;28;20037;-52
2022/01/01 05:18:16;;;;;;;32.28;23.50;;;;;;;-140.79;100.00;63287.88;5028532;28;20446;-52
2022/01/01 05:20:41;;;;;;;33.38;24.67;;;;;;;-140.79;100.00;63287.88;5028485;28;20108;-53
2022/01/01 05:23:06;;;;;;;31.15;23.67;;;;;;;-140.79;100.00;63287.88;5028272;28;20327;-52
2022/01/01 05:25:32;;;;;;;31.48;24.33;;;;;;;-140.79;100.00;63287.88;5028307;28;20086;-51
2022/01/01 05:27:57;;;;;;;32.35;24.92;;;;;;;-140.79;100.00;63287.88;5027727;28;20025;-51
2022/01/01 05:30:23;;;;;;;32.53;24.02;;;;;;;-140.79;100.00;63287.88;5027924;28;20033;-52
2022/01/01 05:32:48;;;;;;;33.50;24.80;;;;;;;-140.79;100.00;63287.88;5028143;28;20510;-52
2022/01/01 05:35:14;;;;;;;33.83;25.45;;;;;;;-140.79;100.00;63287.88;5028130;28;20048;-52
2022/01/01 05:37:39;;;;;;;35.45;24.67;;;;;;;-140.79;100.00;63287.88;5027914;28;20032;-51
2022/01/01 05:40:05;;;;;;;30.13;23.80;;;;;;;-140.79;100.00;63287.88;5027651;28;20029;-51
2022/01/01 05:42:31;;;;;;;30.73;23.10;;;;;;;-140.79;100.00;63287.88;5027734;28;20033;-53
2022/01/01 05:44:56;;;;;;;32.83;23.70;;;;;;;-140.79;100.00;63287.88;5027731;28;20036;-52
2022/01/01 05:47:22;;;;;;;34.85;24.35;;;;;;;-140.79;100.00;63287.88;5027671;28;20068;-52
2022/01/01 05:49:47;;;;;;;29.80;23.15;;;;;;;-140.79;100.00;63287.88;5027264;28;20530;-51
2022/01/01 05:52:12;;;;;;;30.42;22.35;;;;;;;-140.79;100.00;63287.88;5027831;28;20502;-51
2022/01/01 05:54:38;;;;;;;31.67;23.80;;;;;;;-140.79;100.00;63287.88;5027822;28;20010;-51
2022/01/01 05:57:03;;;;;;;31.42;24.45;;;;;;;-140.79;100.00;63287.88;5027368;28;20125;-51
2022/01/01 05:59:29;;;;;;;31.55;23.08;;;;;;;-140.79;100.00;63287.88;5042862;28;20041;-52
2022/01/01 06:01:54;;;;;;;31.65;23.73;;;;;;;-140.79;100.00;63287.88;5027209;28;20546;-51
2022/01/01 06:04:20;;;;;;;33.00;24.70;;;;;;;-140.79;100.00;63287.88;5027313;28;20415;-52
2022/01/01 06:06:45;;;;;;;29.90;23.92;;;;;;;-140.79;100.00;63287.88;5027358;28;20025;-52
2022/01/01 06:09:11;;;;;;;30.30;23.17;;;;;;;-140.79;100.00;63287.88;5041137;28;20099;-52
2022/01/01 06:11:36;;;;;;;30.48;23.70;;;;;;;-140.79;100.00;63287.88;5007222;28;20217;-52
2022/01/01 06:14:02;;;;;;;29.27;23.02;;;;;;;-140.79;100.00;63287.88;5006882;28;20419;-51
2022/01/01 06:16:28;;;;;;;30.45;23.65;;;;;;;-140.79;100.00;63287.88;5007045;28;20488;-52
2022/01/01 06:18:53;;;;;;;32.35;23.90;;;;;;;-140.79;100.00;63287.88;4878638;28;20053;-52
2022/01/01 06:21:19;;;;;;;28.83;22.73;;;;;;;-140.79;100.00;63287.88;4992310;28;20044;-52
2022/01/01 06:23:44;;;;;;;29.17;21.80;;;;;;;-140.79;100.00;63287.88;5008760;28;20042;-51
2022/01/01 06:26:10;;;;;;;28.70;21.85;;;;;;;-140.79;100.00;63287.88;5010809;28;20055;-51
2022/01/01 06:28:35;;;;;;;29.40;21.48;;;;;;;-140.79;100.00;63287.88;5014081;28;20522;-52
2022/01/01 06:31:00;;;;;;;28.63;21.92;;;;;;;-140.79;100.00;63287.88;5026642;28;20404;-51
2022/01/01 06:33:26;;;;;;;28.88;21.63;;;;;;;-140.79;100.00;63287.88;5026848;28;20052;-50
2022/01/01 06:35:53;;;;;;;27.13;20.17;;;;;;;-140.79;100.00;63287.88;5026516;28;20064;-51
2022/01/01 06:38:18;;;;;;;25.77;20.60;;;;;;;-140.79;100.00;63287.88;5025469;28;20017;-52
2022/01/01 06:40:44;;;;;;;28.65;20.58;;;;;;;-140.79;100.00;63287.88;5026515;28;20080;-52
2022/01/01 06:43:11;;;;;;;27.45;20.73;;;;;;;-140.79;100.00;63287.88;5026524;28;20485;-52
2022/01/01 06:45:36;;;;;;;26.98;20.33;;;;;;;-140.79;100.00;63287.88;5026498;28;20025;-51
2022/01/01 06:48:02;;;;;;;26.55;19.33;;;;;;;-140.79;100.00;63287.88;5026122;28;20427;-52
2022/01/01 06:50:27;;;;;;;26.10;19.27;;;;;;;-140.79;100.00;63287.88;5025978;28;20559;-51
2022/01/01 06:52:53;;;;;;;24.92;18.40;;;;;;;-140.79;100.00;63287.88;5026100;28;20033;-51
2022/01/01 06:55:18;;;;;;;24.20;18.23;;;;;;;-140.79;100.00;63287.88;5014517;28;20069;-51
2022/01/01 06:57:44;;;;;;;23.45;18.48;;;;;;;-140.79;100.00;63287.88;5022040;28;20029;-52
2022/01/01 07:00:10;;;;;;;25.30;18.75;;;;;;;-140.79;100.00;63287.88;5026122;28;20032;-52
2022/01/01 07:02:42;;;;;;;24.80;18.30;;;;;;;-140.79;100.00;63287.88;5025936;28;20632;-52
2022/01/01 07:05:08;;;;;;;23.35;17.23;;;;;;;-140.79;100.00;63287.88;5025396;28;20033;-52
2022/01/01 07:07:33;;;;;;;22.33;17.65;;;;;;;-140.79;100.00;63287.88;5025269;28;20049;-51
2022/01/01 07:09:59;;;;;;;24.52;17.85;;;;;;;-140.79;100.00;63287.88;5025241;28;20519;-52
2022/01/01 07:12:24;;;;;;;25.13;17.85;;;;;;;-140.79;100.00;63287.88;5025910;28;20086;-52
2022/01/01 07:14:50;;;;;;;23.10;17.13;;;;;;;-140.79;100.00;63287.88;5025748;28;20488;-51
2022/01/01 07:17:15;;;;;;;25.02;17.90;;;;;;;-140.79;100.00;63287.88;5025560;28;21045;-51
2022/01/01 07:19:40;;;;;;;21.75;16.95;;;;;;;-140.79;100.00;63287.88;5025489;28;20041;-53
2022/01/01 07:22:06;;;;;;;21.05;15.30;;;;;;;-140.79;100.00;63287.88;5025089;28;20034;-53
2022/01/01 07:24:31;;;;;;;21.75;16.35;;;;;;;-140.79;100.00;63287.88;5025577;28;20021;-53
2022/01/01 07:26:57;;;;;;;23.10;16.35;;;;;;;-140.79;100.00;63287.88;5024820;28;20029;-55
2022/01/01 07:29:23;;;;;;;21.13;15.95;;;;;;;-140.79;100.00;63287.88;5024888;28;20467;-53
2022/01/01 07:31:48;;;;;;;20.90;15.82;;;;;;;-140.79;100.00;63287.88;5019080;28;20072;-52
2022/01/01 07:34:13;;;;;;;22.58;17.02;;;;;;;-140.79;100.00;63287.88;5027531;28;20006;-53
2022/01/01 07:36:39;;;;;;;27.23;16.00;;;;;;;-140.79;100.00;63287.88;5040762;28;20017;-52
2022/01/01 07:39:04;;;;;;;22.05;15.57;;;;;;;-140.79;100.00;63287.88;5025058;28;20466;-52
2022/01/01 07:41:30;;;;;;;21.05;15.68;;;;;;;-140.79;100.00;63287.88;5025457;28;20496;-51
2022/01/01 07:43:55;;;;;;;23.05;16.63;;;;;;;-140.79;100.00;63287.88;5024984;28;20025;-51
2022/01/01 07:46:21;;;;;;;24.67;15.80;;;;;;;-140.79;100.00;63287.88;5025617;28;20017;-51
2022/01/01 07:48:46;;;;;;;21.33;15.07;;;;;;;-140.79;100.00;63287.88;5025244;28;20021;-55
2022/01/01 07:51:11;;;;;;;20.25;15.18;;;;;;;-140.79;100.00;63287.88;5025238;28;20041;-55
2022/01/01 07:53:37;;;;;;;19.85;14.73;;;;;;;-140.79;100.00;63287.88;5025119;28;20029;-53
2022/01/01 07:56:02;;;;;;;20.98;14.98;;;;;;;-140.79;100.00;63287.88;5023550;28;20494;-55
2022/01/01 07:58:28;;;;;;;18.70;14.50;;;;;;;-140.79;100.00;63287.88;5025134;28;20049;-50
2022/01/01 08:00:53;;;;;;;18.88;14.48;;;;;;;-140.79;100.00;63287.88;5025106;28;20045;-54
2022/01/01 08:03:19;;;;;;;19.38;14.65;;;;;;;-140.79;100.00;63287.88;5024721;28;20653;-54
2022/01/01 08:05:44;;;;;;;20.75;15.30;;;;;;;-140.79;100.00;63287.88;5024762;28;20068;-55
2022/01/01 08:08:10;;;;;;;18.40;14.88;;;;;;;-140.79;100.00;63287.88;5024664;28;20037;-52
2022/01/01 08:10:37;;;;;;;19.13;14.90;;;;;;;-140.79;100.00;63287.88;5024618;28;20041;-53
2022/01/01 08:13:03;;;;;;;20.23;14.18;;;;;;;-140.79;100.00;63287.88;5024663;28;20033;-53
2022/01/01 08:15:29;;;;;;;17.90;14.00;;;;;;;-140.79;100.00;63287.88;5024641;28;20017;-54
2022/01/01 08:17:54;;;;;;;18.73;13.77;;;;;;;-140.79;100.00;63287.88;5024287;28;20079;-57
2022/01/01 08:20:20;;;;;;;19.35;14.45;;;;;;;-140.79;100.00;63287.88;5024810;28;20105;-57
2022/01/01 08:22:45;;;;;;;19.08;14.30;;;;;;;-140.79;100.00;63287.88;5024030;28;20342;-56
2022/01/01 08:25:11;;;;;;;17.08;14.32;;;;;;;-140.79;100.00;63287.88;5024565;28;20033;-57
2022/01/01 08:27:36;;;;;;;18.55;14.15;;;;;;;-140.79;100.00;63287.88;5023932;28;20033;-54
2022/01/01 08:30:02;;;;;;;18.60;13.25;;;;;;;-140.79;100.00;63287.88;5023333;28;20033;-55
2022/01/01 08:32:27;;;;;;;19.05;14.30;;;;;;;-140.79;100.00;63287.88;5024404;28;20423;-53
2022/01/01 08:34:53;;;;;;;18.60;13.65;;;;;;;-140.79;100.00;63287.88;5024268;28;20059;-53
2022/01/01 08:37:18;;;;;;;17.95;14.10;;;;;;;-140.79;100.00;63287.88;5024509;28;20033;-53
2022/01/01 08:39:44;;;;;;;16.48;12.85;;;;;;;-140.79;100.00;63287.88;5023870;28;20052;-54
2022/01/01 08:42:10;;;;;;;18.48;13.55;;;;;;;-140.79;100.00;63287.88;5023468;28;20029;-53
2022/01/01 08:44:35;;;;;;;16.65;13.55;;;;;;;-140.79;100.00;63287.88;5023648;28;20619;-55
2022/01/01 08:47:01;;;;;;;17.25;12.63;;;;;;;-140.79;100.00;63287.88;5021181;28;20026;-53
2022/01/01 08:49:26;;;;;;;17.08;13.32;;;;;;;-140.79;100.00;63287.88;5024030;28;20029;-55
2022/01/01 08:51:55;;;;;;;16.10;12.50;;;;;;;-140.79;100.00;63287.88;5027430;28;20095;-52
2022/01/01 08:54:20;;;;;;;14.98;12.43;;;;;;;-140.79;100.00;63287.88;5027635;28;20025;-55
2022/01/01 08:56:46;;;;;;;17.40;13.50;;;;;;;-140.79;100.00;63287.88;5027952;28;20087;-56
2022/01/01 08:59:11;;;;;;;15.52;12.50;;;;;;;-140.79;100.00;63287.88;5028256;28;20080;-53
2022/01/01 09:01:37;;;;;;;15.02;11.75;;;;;;;-140.79;100.00;63287.88;5028086;28;20037;-58
2022/01/01 09:04:03;;;;;;;16.38;12.07;;;;;;;-140.79;100.00;63287.88;5027877;28;20037;-55
2022/01/01 09:06:28;;;;;;;15.52;12.50;;;;;;;-140.79;100.00;63287.88;5026815;28;20033;-52
2022/01/01 09:08:54;;;;;;;17.05;12.57;;;;;;;-140.79;100.00;63287.88;5027777;28;20037;-54
2022/01/01 09:11:19;;;;;;;14.65;11.90;;;;;;;-140.79;100.00;63287.88;5027935;28;20041;-56
2022/01/01 09:13:45;;;;;;;13.85;11.05;;;;;;;-140.79;100.00;63287.88;5027880;28;20037;-53
2022/01/01 09:16:14;;;;;;;16.38;11.95;;;;;;;-140.79;100.00;63287.88;5027869;28;20464;-56
2022/01/01 09:18:40;;;;;;;14.40;11.65;;;;;;;-140.79;100.00;63287.88;5026891;28;20779;-58
2022/01/01 09:21:06;;;;;;;14.13;11.05;;;;;;;-140.79;100.00;63287.88;5027881;28;20112;-54
2022/01/01 09:23:31;;;;;;;15.43;11.43;;;;;;;-140.79;100.00;63287.88;5027620;28;20056;-54
2022/01/01 09:25:57;;;;;;;14.90;10.60;;;;;;;-140.79;100.00;63287.88;5026808;28;20033;-54
2022/01/01 09:28:22;;;;;;;13.73;10.45;;;;;;;-140.79;100.00;63287.88;5028084;28;20249;-53
2022/01/01 09:30:48;;;;;;;15.05;11.85;;;;;;;-140.79;100.00;63287.88;5027634;28;20076;-54
2022/01/01 09:33:13;;;;;;;14.68;11.07;;;;;;;-140.79;100.00;63287.88;5042394;28;20022;-54
2022/01/01 09:35:39;;;;;;;12.85;10.18;;;;;;;-140.79;100.00;63287.88;5027514;28;20021;-55
2022/01/01 09:38:05;;;;;;;15.93;10.80;;;;;;;-140.79;100.00;63287.88;5025748;28;20068;-52
2022/01/01 09:40:31;;;;;;;14.80;11.10;;;;;;;-140.79;100.00;63287.88;5026691;28;20463;-53
2022/01/01 09:42:56;;;;;;;12.95;10.13;;;;;;;-140.79;100.00;63287.88;5042273;28;20020;-53
2022/01/01 09:45:22;;;;;;;13.52;10.25;;;;;;;-140.79;100.00;63287.88;5023118;28;20029;-54
2022/01/01 09:47:47;;;;;;;13.27;10.30;;;;;;;-140.79;100.00;63287.88;5005003;28;20026;-54
2022/01/01 09:50:13;;;;;;;12.75;9.57;;;;;;;-140.79;100.00;63287.88;5012596;28;20029;-53
2022/01/01 09:52:39;;;;;;;13.45;10.93;;;;;;;-140.79;100.00;63287.88;5008252;28;20397;-53
2022/01/01 09:55:05;;;;;;;13.77;10.80;;;;;;;-140.79;100.00;63287.88;5008205;28;20026;-54
2022/01/01 09:57:30;;;;;;;13.13;10.13;;;;;;;-140.79;100.00;63287.88;5008806;28;20038;-54
2022/01/01 09:59:56;;;;;;;13.40;10.05;;;;;;;-140.79;100.00;63287.88;5037238;28;20489;-53
2022/01/01 10:02:21;;;;;;;14.80;9.88;;;;;;;-140.79;100.00;63287.88;5025882;28;20021;-54
2022/01/01 10:04:52;;;;;;;12.95;9.57;;;;;;;-140.79;100.00;63287.88;4999496;28;20103;-54
2022/01/01 10:07:25;;;;;;;12.93;10.15;;;;;;;-140.79;100.00;63287.88;5032487;28;20048;-53
2022/01/01 10:09:50;;;;;;;11.48;9.18;;;;;;;-140.79;100.00;63287.88;5026576;28;20091;-53
2022/01/01 10:12:16;;;;;;;12.82;9.60;;;;;;;-140.79;100.00;63287.88;5027182;28;20037;-53
2022/01/01 10:14:46;;;;;;;13.27;10.43;;;;;;;-140.79;100.00;63287.88;5025446;28;20037;-53
2022/01/01 10:17:16;;;;;;;11.95;9.90;;;;;;;-140.79;100.00;63287.88;5026964;28;20598;-52
2022/01/01 10:19:42;;;;;;;12.55;9.85;;;;;;;-140.79;100.00;63287.88;5023947;28;20993;-53
2022/01/01 10:22:12;;;;;;;11.32;9.00;;;;;;;-140.79;100.00;63287.88;5026253;28;20091;-54
2022/01/01 10:27:42;;;;;;;;;;;;;;;-140.79;100.00;63287.88;5027252;28;20436;-54
2022/01/01 10:30:20;;;;;;;11.07;8.77;;;;;;;-140.79;100.00;63287.88;5020439;28;20052;-54
2022/01/01 10:33:24;;;;;;;11.32;9.15;;;;;;;-140.79;100.00;63287.88;5014038;28;20037;-53
2022/01/01 10:35:50;;;;;;;11.00;9.07;;;;;;;-140.79;100.00;63287.88;4965056;28;20600;-54
2022/01/01 10:38:22;;;;;;;10.80;8.63;;;;;;;-140.79;100.00;63287.88;4956277;28;20549;-54
2022/01/01 10:40:48;;;;;;;12.52;9.40;;;;;;;-140.79;100.00;63287.88;4993459;28;20033;-54
2022/01/01 10:43:14;;;;;;;10.00;8.43;;;;;;;-140.79;100.00;63287.88;5031699;28;20547;-54
2022/01/01 10:45:42;;;;;;;11.35;8.15;;;;;;;-140.79;100.00;63287.88;5014443;28;20034;-54
2022/01/01 10:48:21;;;;;;;13.88;8.98;;;;;;;-140.79;100.00;63287.88;5023814;28;20567;-54
2022/01/01 10:50:48;;;;;;;12.60;8.45;;;;;;;-140.79;100.00;63287.88;5044487;28;20033;-54
2022/01/01 10:53:23;;;;;;;11.13;8.00;;;;;;;-140.79;100.00;63287.88;5025974;28;20033;-54
2022/01/01 10:55:51;;;;;;;11.68;8.45;;;;;;;-140.79;100.00;63287.88;5018034;28;20064;-54